createdAt,value
2019-04-05T00:00:08.885Z,45.63
2019-04-05T00:02:37.983Z,46.30
2019-04-05T00:05:08.062Z,45.03
2019-04-05T00:07:37.713Z,47.10
2019-04-05T00:10:08.284Z,46.67
2019-04-05T00:12:37.417Z,46.57
2019-04-05T00:15:15.267Z,45.93
2019-04-05T00:17:38.997Z,46.97
2019-04-05T00:20:08.634Z,47.50
2019-04-05T00:22:37.742Z,46.50
2019-04-05T00:25:07.821Z,45.87
2019-04-05T00:27:36.992Z,47.37
2019-04-05T00:30:10.337Z,45.23
2019-04-05T00:32:39.444Z,46.87
2019-04-05T00:35:08.924Z,46.80
2019-04-05T00:37:38.276Z,46.97
2019-04-05T00:40:09.364Z,44.90
2019-04-05T00:42:38.771Z,45.73
2019-04-05T00:45:08.501Z,44.93
2019-04-05T00:47:37.610Z,44.63
2019-04-05T00:50:08.829Z,44.77
2019-04-05T00:52:38.053Z,42.57
2019-04-05T00:55:08.031Z,43.60
2019-04-05T00:57:37.627Z,42.13
2019-04-05T01:00:08.147Z,42.30
2019-04-05T01:02:37.476Z,44.47
2019-04-05T01:05:08.956Z,43.07
2019-04-05T01:07:38.067Z,42.73
2019-04-05T01:10:08.185Z,41.27
2019-04-05T01:12:38.082Z,41.20
2019-04-05T01:15:08.837Z,41.07
2019-04-05T01:17:38.414Z,43.27
2019-04-05T01:20:08.005Z,41.77
2019-04-05T01:22:38.407Z,42.53
2019-04-05T01:25:07.912Z,41.30
2019-04-05T01:27:40.654Z,41.33
2019-04-05T01:30:15.127Z,43.27
2019-04-05T01:32:44.272Z,43.00
2019-04-05T01:35:13.950Z,45.80
2019-04-05T01:37:43.440Z,44.63
2019-04-05T01:40:12.746Z,44.33
2019-04-05T01:42:42.257Z,44.67
2019-04-05T01:45:13.151Z,44.37
2019-04-05T01:47:42.638Z,44.87
2019-04-05T01:50:12.020Z,47.13
2019-04-05T01:52:42.889Z,46.90
2019-04-05T01:55:14.027Z,47.53
2019-04-05T01:57:43.474Z,45.70
2019-04-05T02:00:13.332Z,43.97
2019-04-05T02:02:42.513Z,44.97
2019-04-05T02:05:11.672Z,43.33
2019-04-05T02:07:41.474Z,45.93
2019-04-05T02:10:11.516Z,46.10
2019-04-05T02:12:41.343Z,43.40
2019-04-05T02:15:14.213Z,44.90
2019-04-05T02:17:43.550Z,44.07
2019-04-05T02:20:13.078Z,43.70
2019-04-05T02:22:42.228Z,42.77
2019-04-05T02:25:11.511Z,41.77
2019-04-05T02:27:40.705Z,42.50
2019-04-05T02:30:09.906Z,42.43
2019-04-05T02:32:42.674Z,43.13
2019-04-05T02:35:11.914Z,43.97
2019-04-05T02:37:41.271Z,45.90
2019-04-05T02:40:14.878Z,43.43
2019-04-05T02:42:45.268Z,42.07
2019-04-05T02:45:14.708Z,44.30
2019-04-05T02:47:47.091Z,44.30
2019-04-05T02:50:16.326Z,43.20
2019-04-05T02:52:46.593Z,45.13
2019-04-05T02:55:15.795Z,42.03
2019-04-05T02:57:46.576Z,42.50
2019-04-05T03:00:16.115Z,42.40
2019-04-05T03:02:45.756Z,43.83
2019-04-05T03:05:15.030Z,44.43
2019-04-05T03:07:44.415Z,42.90
2019-04-05T03:10:34.771Z,44.80
2019-04-05T03:13:04.237Z,44.20
2019-04-05T03:15:33.387Z,45.63
2019-04-05T03:18:02.989Z,42.73
2019-04-05T03:20:32.643Z,45.23
2019-04-05T03:23:02.043Z,45.67
2019-04-05T03:25:31.338Z,49.70
2019-04-05T03:28:01.255Z,47.73
2019-04-05T03:30:30.934Z,49.50
2019-04-05T03:33:00.658Z,52.70
2019-04-05T03:35:29.858Z,51.40
2019-04-05T03:37:59.391Z,51.23
2019-04-05T03:40:28.484Z,51.47
2019-04-05T03:42:57.965Z,50.40
2019-04-05T03:45:27.521Z,51.70
2019-04-05T03:47:56.677Z,51.20
2019-04-05T03:50:25.914Z,54.07
2019-04-05T03:52:55.063Z,53.50
2019-04-05T03:55:24.492Z,51.67
2019-04-05T03:57:53.633Z,50.50
2019-04-05T04:00:23.137Z,54.23
2019-04-05T04:02:52.740Z,53.03
2019-04-05T04:05:21.894Z,52.83
2019-04-05T04:07:51.511Z,51.87
2019-04-05T04:10:21.658Z,51.93
2019-04-05T04:12:51.161Z,51.37
2019-04-05T04:15:20.227Z,52.73
2019-04-05T04:17:49.460Z,52.90
2019-04-05T04:20:37.516Z,48.97
2019-04-05T04:23:07.981Z,53.07
2019-04-05T04:25:38.798Z,53.03
2019-04-05T04:28:08.520Z,52.47
2019-04-05T04:30:38.567Z,56.40
2019-04-05T04:33:08.175Z,54.97
2019-04-05T04:35:37.281Z,49.53
2019-04-05T04:38:06.774Z,54.63
2019-04-05T04:40:36.110Z,54.30
2019-04-05T04:43:05.559Z,53.50
2019-04-05T04:45:34.826Z,54.43
2019-04-05T04:48:04.291Z,54.70
2019-04-05T04:50:33.964Z,53.97
2019-04-05T04:53:03.336Z,54.90
2019-04-05T04:55:32.728Z,52.87
2019-04-05T04:58:02.206Z,54.87
2019-04-05T05:00:31.591Z,55.83
2019-04-05T05:03:01.095Z,54.63
2019-04-05T05:05:31.066Z,52.23
2019-04-05T05:08:00.878Z,52.33
2019-04-05T05:10:30.447Z,52.60
2019-04-05T05:12:59.646Z,56.37
2019-04-05T05:15:28.835Z,53.33
2019-04-05T05:17:59.113Z,51.13
2019-04-05T05:20:28.388Z,54.67
2019-04-05T05:22:57.545Z,56.60
2019-04-05T05:25:27.094Z,53.90
2019-04-05T05:27:57.023Z,52.73
2019-04-05T05:30:27.325Z,55.07
2019-04-05T05:32:56.663Z,51.27
2019-04-05T05:35:25.859Z,54.07
2019-04-05T05:37:55.545Z,58.07
2019-04-05T05:40:34.789Z,54.23
2019-04-05T05:42:55.803Z,53.27
2019-04-05T05:45:25.410Z,53.87
2019-04-05T05:47:54.814Z,54.77
2019-04-05T05:50:24.040Z,54.30
2019-04-05T05:52:53.827Z,55.40
2019-04-05T05:55:23.259Z,52.50
2019-04-05T05:57:54.931Z,55.03
2019-04-05T06:00:24.926Z,54.27
2019-04-05T06:02:54.419Z,53.87
2019-04-05T06:05:23.765Z,52.80
2019-04-05T06:07:52.863Z,52.20
2019-04-05T06:10:22.212Z,49.73
2019-04-05T06:12:51.409Z,54.00
2019-04-05T06:15:20.525Z,51.63
2019-04-05T06:17:49.887Z,50.93
2019-04-05T06:20:19.230Z,48.47
2019-04-05T06:22:48.358Z,51.03
2019-04-05T06:25:17.714Z,51.00
2019-04-05T06:27:46.843Z,49.27
2019-04-05T06:30:16.311Z,49.27
2019-04-05T06:32:45.675Z,50.47
2019-04-05T06:35:15.007Z,47.17
2019-04-05T06:37:44.113Z,48.23
2019-04-05T06:40:13.500Z,50.03
2019-04-05T06:42:42.834Z,50.57
2019-04-05T06:45:12.314Z,50.93
2019-04-05T06:47:41.681Z,48.37
2019-04-05T06:50:11.204Z,48.13
2019-04-05T06:52:40.538Z,47.73
2019-04-05T06:55:09.950Z,48.00
2019-04-05T06:57:39.310Z,48.23
2019-04-05T07:00:08.675Z,47.97
2019-04-05T07:02:37.821Z,46.90
2019-04-05T07:05:08.121Z,49.10
2019-04-05T07:07:37.457Z,49.43
2019-04-05T07:10:06.972Z,48.33
2019-04-05T07:12:36.068Z,46.03
2019-04-05T07:15:06.629Z,47.97
2019-04-05T07:17:35.738Z,45.23
2019-04-05T07:20:06.462Z,47.77
2019-04-05T07:22:39.141Z,45.77
2019-04-05T07:25:06.889Z,46.63
2019-04-05T07:27:36.242Z,45.17
2019-04-05T07:30:07.569Z,45.47
2019-04-05T07:32:36.901Z,43.23
2019-04-05T07:35:06.963Z,44.43
2019-04-05T07:37:36.565Z,45.10
2019-04-05T07:40:08.130Z,44.73
2019-04-05T07:42:37.775Z,48.77
2019-04-05T07:45:07.230Z,45.37
2019-04-05T07:47:36.699Z,45.93
2019-04-05T07:50:08.340Z,43.63
2019-04-05T07:52:37.680Z,42.57
2019-04-05T07:55:07.586Z,44.37
2019-04-05T07:57:36.773Z,39.63
2019-04-05T08:00:12.822Z,44.37
2019-04-05T08:02:42.169Z,46.97
2019-04-05T08:05:11.272Z,46.47
2019-04-05T08:07:45.316Z,44.80
2019-04-05T08:10:14.465Z,46.07
2019-04-05T08:12:43.655Z,47.07
2019-04-05T08:15:13.151Z,45.27
2019-04-05T08:17:42.225Z,45.63
2019-04-05T08:20:11.388Z,50.37
2019-04-05T08:22:40.506Z,46.40
2019-04-05T08:25:09.801Z,44.80
2019-04-05T08:27:39.492Z,43.43
2019-04-05T08:30:09.211Z,47.60
2019-04-05T08:32:38.593Z,45.10
2019-04-05T08:35:07.758Z,45.53
2019-04-05T08:37:37.151Z,45.27
2019-04-05T08:40:07.563Z,48.80
2019-04-05T08:42:36.922Z,47.93
2019-04-05T08:45:07.160Z,45.47
2019-04-05T08:47:36.235Z,46.40
2019-04-05T08:50:07.351Z,45.33
2019-04-05T08:52:36.461Z,45.40
2019-04-05T08:55:06.516Z,42.83
2019-04-05T08:57:35.864Z,44.20
2019-04-05T09:00:07.611Z,44.77
2019-04-05T09:02:37.273Z,42.40
2019-04-05T09:05:07.125Z,45.57
2019-04-05T09:07:36.498Z,43.03
2019-04-05T09:10:07.575Z,41.37
2019-04-05T09:12:36.712Z,41.80
2019-04-05T09:15:09.085Z,41.93
2019-04-05T09:17:38.469Z,42.63
2019-04-05T09:20:08.002Z,40.33
2019-04-05T09:22:37.698Z,41.23
2019-04-05T09:25:07.489Z,42.53
2019-04-05T09:27:36.698Z,38.80
2019-04-05T09:30:09.686Z,39.40
2019-04-05T09:32:38.767Z,40.30
2019-04-05T09:35:08.512Z,38.53
2019-04-05T09:37:37.857Z,39.43
2019-04-05T09:40:08.349Z,40.83
2019-04-05T09:42:37.525Z,39.07
2019-04-05T09:45:06.711Z,37.90
2019-04-05T09:47:35.918Z,39.43
2019-04-05T09:50:08.079Z,37.33
2019-04-05T09:52:39.944Z,43.83
2019-04-05T09:55:08.101Z,39.57
2019-04-05T09:57:37.192Z,40.87
2019-04-05T10:00:10.994Z,38.60
2019-04-05T10:02:40.452Z,37.47
2019-04-05T10:05:09.601Z,38.77
2019-04-05T10:07:48.745Z,37.07
2019-04-05T10:10:10.775Z,38.53
2019-04-05T10:12:40.033Z,37.97
2019-04-05T10:15:09.439Z,37.20
2019-04-05T10:17:38.811Z,41.93
2019-04-05T10:20:08.030Z,38.37
2019-04-05T10:22:37.420Z,40.47
2019-04-05T10:25:07.743Z,41.93
2019-04-05T10:27:37.081Z,40.70
2019-04-05T10:30:09.244Z,39.80
2019-04-05T10:32:38.256Z,41.13
2019-04-05T10:35:07.518Z,40.47
2019-04-05T10:37:36.596Z,40.10
2019-04-05T10:40:08.181Z,39.83
2019-04-05T10:42:37.966Z,40.03
2019-04-05T10:45:10.918Z,39.17
2019-04-05T10:47:40.106Z,39.57
2019-04-05T10:50:11.798Z,37.53
2019-04-05T10:52:40.942Z,37.37
2019-04-05T10:55:10.217Z,40.53
2019-04-05T10:57:39.668Z,40.40
2019-04-05T11:00:15.369Z,39.13
2019-04-05T11:02:44.740Z,40.13
2019-04-05T11:05:14.915Z,40.10
2019-04-05T11:07:44.294Z,41.03
2019-04-05T11:10:14.037Z,40.73
2019-04-05T11:12:43.174Z,37.10
2019-04-05T11:15:15.242Z,36.57
2019-04-05T11:17:44.788Z,40.20
2019-04-05T11:20:21.218Z,40.07
2019-04-05T11:22:46.855Z,41.17
2019-04-05T11:25:16.513Z,39.03
2019-04-05T11:27:46.138Z,42.50
2019-04-05T11:30:18.208Z,40.93
2019-04-05T11:32:47.957Z,38.93
2019-04-05T11:35:17.511Z,39.77
2019-04-05T11:37:49.797Z,38.40
2019-04-05T11:40:17.883Z,41.30
2019-04-05T11:42:47.388Z,40.17
2019-04-05T11:45:28.339Z,40.87
2019-04-05T11:47:58.775Z,39.60
2019-04-05T11:50:34.345Z,39.57
2019-04-05T11:52:59.548Z,38.33
2019-04-05T11:55:28.672Z,36.80
2019-04-05T11:57:58.383Z,38.97
2019-04-05T12:00:41.322Z,36.33
2019-04-05T12:03:11.889Z,37.47
2019-04-05T12:05:41.264Z,39.60
2019-04-05T12:08:10.369Z,38.83
2019-04-05T12:10:39.781Z,37.60
2019-04-05T12:13:09.220Z,39.03
2019-04-05T12:15:38.685Z,37.23
2019-04-05T12:18:11.713Z,42.27
2019-04-05T12:20:49.159Z,41.50
2019-04-05T12:23:11.999Z,39.33
2019-04-05T12:25:41.336Z,37.43
2019-04-05T12:28:11.016Z,40.23
2019-04-05T12:30:41.003Z,39.03
2019-04-05T12:33:14.317Z,38.00
2019-04-05T12:35:41.233Z,36.57
2019-04-05T12:38:10.336Z,38.83
2019-04-05T12:40:40.666Z,38.83
2019-04-05T12:43:13.619Z,36.23
2019-04-05T12:45:44.346Z,38.87
2019-04-05T12:48:13.738Z,39.50
2019-04-05T12:50:45.025Z,38.33
2019-04-05T12:53:14.227Z,40.17
2019-04-05T12:55:43.304Z,37.63
2019-04-05T12:58:13.021Z,36.67
2019-04-05T13:00:42.362Z,37.90
2019-04-05T13:03:11.695Z,38.57
2019-04-05T13:05:41.325Z,39.93
2019-04-05T13:08:10.445Z,40.73
2019-04-05T13:10:39.632Z,37.20
2019-04-05T13:13:08.967Z,41.20
2019-04-05T13:15:38.556Z,39.20
2019-04-05T13:18:09.374Z,42.30
2019-04-05T13:20:38.543Z,40.60
2019-04-05T13:23:07.974Z,42.60
2019-04-05T13:25:38.859Z,41.30
2019-04-05T13:28:13.563Z,42.57
2019-04-05T13:30:39.463Z,41.53
2019-04-05T13:33:08.553Z,42.77
2019-04-05T13:35:37.687Z,44.00
2019-04-05T13:38:07.294Z,41.87
2019-04-05T13:40:36.378Z,40.70
2019-04-05T13:43:05.569Z,39.47
2019-04-05T13:45:34.648Z,40.53
2019-04-05T13:48:03.836Z,43.00
2019-04-05T13:50:33.234Z,42.00
2019-04-05T13:53:02.282Z,40.07
2019-04-05T13:55:31.364Z,40.80
2019-04-05T13:58:01.159Z,42.93
2019-04-05T14:00:40.931Z,40.70
2019-04-05T14:03:10.213Z,43.00
2019-04-05T14:05:39.321Z,41.10
2019-04-05T14:08:10.862Z,44.50
2019-04-05T14:10:41.903Z,42.13
2019-04-05T14:13:10.906Z,43.37
2019-04-05T14:15:42.235Z,40.47
2019-04-05T14:18:14.358Z,43.30
2019-04-05T14:20:42.099Z,43.93
2019-04-05T14:23:11.219Z,45.10
2019-04-05T14:25:40.554Z,44.87
2019-04-05T14:28:09.630Z,44.97
2019-04-05T14:30:39.038Z,44.57
2019-04-05T14:33:08.400Z,45.60
2019-04-05T14:35:37.480Z,42.90
2019-04-05T14:38:07.132Z,44.07
2019-04-05T14:40:36.471Z,45.10
2019-04-05T14:43:05.837Z,46.20
2019-04-05T14:45:35.223Z,46.50
2019-04-05T14:48:04.291Z,43.73
2019-04-05T14:50:33.650Z,45.30
2019-04-05T14:53:03.156Z,44.77
2019-04-05T14:55:32.971Z,44.20
2019-04-05T14:58:05.227Z,44.27
2019-04-05T15:00:33.110Z,44.63
2019-04-05T15:03:02.232Z,45.77
2019-04-05T15:05:31.370Z,44.47
2019-04-05T15:08:00.458Z,44.70
2019-04-05T15:10:29.845Z,42.73
2019-04-05T15:13:00.348Z,42.23
2019-04-05T15:15:29.595Z,41.47
2019-04-05T15:17:58.685Z,42.90
2019-04-05T15:20:27.814Z,43.03
2019-04-05T15:22:56.988Z,42.50
2019-04-05T15:25:26.361Z,43.00
2019-04-05T15:27:55.703Z,42.57
2019-04-05T15:30:26.685Z,40.93
2019-04-05T15:32:58.602Z,41.93
2019-04-05T15:35:32.193Z,42.77
2019-04-05T15:38:04.955Z,40.87
2019-04-05T15:40:34.623Z,41.20
2019-04-05T15:43:03.962Z,39.00
2019-04-05T15:45:33.065Z,40.63
2019-04-05T15:48:06.154Z,42.33
2019-04-05T15:50:34.930Z,41.83
2019-04-05T15:53:05.322Z,43.83
2019-04-05T15:55:34.977Z,42.37
2019-04-05T15:58:04.548Z,41.10
2019-04-05T16:00:44.506Z,42.07
2019-04-05T16:03:14.044Z,40.77
2019-04-05T16:05:44.431Z,41.53
2019-04-05T16:08:16.070Z,42.50
2019-04-05T16:10:45.740Z,40.47
2019-04-05T16:13:15.117Z,40.30
2019-04-05T16:15:44.461Z,45.20
2019-04-05T16:18:13.833Z,41.40
2019-04-05T16:20:42.933Z,41.47
2019-04-05T16:23:20.327Z,40.40
2019-04-05T16:25:50.140Z,43.27
2019-04-05T16:28:19.644Z,44.30
2019-04-05T16:30:49.166Z,41.73
2019-04-05T16:33:18.565Z,42.50
2019-04-05T16:35:48.068Z,44.70
2019-04-05T16:38:17.564Z,45.57
2019-04-05T16:40:46.775Z,41.33
2019-04-05T16:43:15.973Z,42.17
2019-04-05T16:45:45.480Z,40.70
2019-04-05T16:48:15.806Z,41.43
2019-04-05T16:50:45.202Z,41.97
2019-04-05T16:53:15.629Z,43.83
2019-04-05T16:55:44.839Z,41.47
2019-04-05T16:58:14.332Z,41.83
2019-04-05T17:00:43.840Z,41.53
2019-04-05T17:03:13.151Z,41.20
2019-04-05T17:05:42.549Z,40.30
2019-04-05T17:08:11.959Z,39.33
2019-04-05T17:10:41.671Z,42.50
2019-04-05T17:13:11.175Z,42.37
2019-04-05T17:15:40.675Z,40.30
2019-04-05T17:18:10.302Z,37.23
2019-04-05T17:20:39.598Z,38.43
2019-04-05T17:23:09.095Z,37.30
2019-04-05T17:25:38.401Z,40.00
2019-04-05T17:28:07.703Z,40.87
2019-04-05T17:30:37.210Z,38.13
2019-04-05T17:33:06.915Z,43.77
2019-04-05T17:35:36.501Z,38.40
2019-04-05T17:38:06.855Z,39.93
2019-04-05T17:40:36.270Z,41.30
2019-04-05T17:43:05.560Z,39.20
2019-04-05T17:45:36.182Z,42.07
2019-04-05T17:48:05.700Z,41.03
2019-04-05T17:50:36.730Z,41.97
2019-04-05T17:53:12.810Z,42.23
2019-04-05T17:55:37.927Z,42.17
2019-04-05T17:58:07.515Z,41.53
2019-04-05T18:00:38.067Z,43.20
2019-04-05T18:03:07.658Z,39.20
2019-04-05T18:05:36.852Z,41.60
2019-04-05T18:08:06.050Z,41.37
2019-04-05T18:10:35.686Z,43.17
2019-04-05T18:13:04.961Z,41.97
2019-04-05T18:15:46.714Z,41.07
2019-04-05T18:18:20.914Z,41.40
2019-04-05T18:20:50.491Z,40.80
2019-04-05T18:23:25.274Z,40.80
2019-04-05T18:25:52.056Z,40.40
2019-04-05T18:28:22.481Z,42.80
2019-04-05T18:30:52.803Z,42.43
2019-04-05T18:33:22.303Z,41.77
2019-04-05T18:35:51.811Z,42.87
2019-04-05T18:38:25.063Z,42.03
2019-04-05T18:40:58.871Z,42.03
2019-04-05T18:43:28.713Z,42.17
2019-04-05T18:45:58.450Z,42.57
2019-04-05T18:48:27.852Z,42.27
2019-04-05T18:50:57.559Z,42.93
2019-04-05T18:53:37.651Z,41.70
2019-04-05T18:55:59.630Z,42.80
2019-04-05T18:58:29.139Z,44.53
2019-04-05T19:00:58.965Z,42.97
2019-04-05T19:03:29.285Z,45.33
2019-04-05T19:05:58.793Z,43.07
2019-04-05T19:08:39.003Z,45.53
2019-04-05T19:11:01.118Z,43.33
2019-04-05T19:13:30.791Z,41.60
2019-04-05T19:16:00.198Z,43.60
2019-04-05T19:18:29.794Z,45.30
2019-04-05T19:21:08.433Z,42.90
2019-04-05T19:23:50.388Z,42.60
2019-04-05T19:26:09.086Z,43.63
2019-04-05T19:28:38.280Z,42.63
2019-04-05T19:49:07.410Z,42.27
2019-04-05T19:51:36.931Z,42.47
2019-04-05T19:54:06.431Z,41.57
2019-04-05T19:56:36.677Z,40.90
2019-04-05T19:59:06.145Z,41.50
2019-04-05T20:01:35.928Z,42.17
2019-04-05T20:04:05.384Z,42.07
2019-04-05T20:06:34.952Z,42.07
2019-04-05T20:09:06.434Z,43.33
2019-04-05T20:11:36.226Z,42.60
2019-04-05T20:14:05.988Z,41.33
2019-04-05T20:16:35.545Z,43.13
2019-04-05T20:19:05.766Z,43.13
2019-04-05T20:21:35.601Z,41.73
2019-04-05T20:24:13.740Z,40.40
2019-04-05T20:26:37.200Z,40.13
2019-04-05T20:29:08.391Z,39.57
2019-04-05T20:31:37.736Z,40.67
2019-04-05T20:34:07.406Z,38.57
2019-04-05T20:36:36.781Z,40.70
2019-04-05T20:39:08.304Z,41.57
2019-04-05T20:41:40.630Z,41.07
2019-04-05T20:44:10.024Z,42.83
2019-04-05T20:46:39.399Z,40.53
2019-04-05T20:49:08.777Z,41.83
2019-04-05T20:51:38.172Z,43.40
2019-04-05T20:54:07.464Z,42.93
2019-04-05T20:56:36.827Z,42.10
2019-04-05T20:59:25.730Z,41.67
2019-04-05T21:01:55.107Z,40.80
2019-04-05T21:04:24.797Z,43.07
2019-04-05T21:06:54.492Z,40.00
2019-04-05T21:09:24.067Z,41.43
2019-04-05T21:11:53.697Z,41.20
2019-04-05T21:14:23.140Z,39.07
2019-04-05T21:16:53.506Z,41.90
2019-04-05T21:19:22.915Z,40.30
2019-04-05T21:21:52.411Z,40.53
2019-04-05T21:24:23.566Z,41.90
2019-04-05T21:26:52.992Z,40.97
2019-04-05T21:29:22.702Z,39.73
2019-04-05T21:31:52.514Z,40.33
2019-04-05T21:34:22.437Z,39.77
2019-04-05T21:36:51.922Z,39.13
2019-04-05T21:39:21.534Z,39.50
2019-04-05T21:41:51.661Z,39.33
2019-04-05T21:44:21.744Z,40.43
2019-04-05T21:46:51.795Z,40.37
2019-04-05T21:49:22.757Z,35.93
2019-04-05T21:51:52.770Z,39.73
2019-04-05T21:54:22.585Z,39.83
2019-04-05T21:56:59.146Z,40.07
2019-04-05T22:02:24.766Z,38.83
2019-04-05T22:04:54.306Z,39.23
2019-04-05T22:07:23.774Z,41.13
2019-04-05T22:09:53.322Z,38.80
2019-04-05T22:12:25.534Z,40.57
2019-04-05T22:14:55.249Z,38.03
2019-04-05T22:17:25.109Z,39.77
2019-04-05T22:19:54.491Z,38.93
2019-04-05T22:22:23.988Z,40.57
2019-04-05T22:24:59.232Z,39.40
2019-04-05T22:27:24.160Z,37.80
2019-04-05T22:29:53.543Z,38.67
2019-04-05T22:32:22.945Z,39.60
2019-04-05T22:34:52.430Z,39.67
2019-04-05T22:37:21.920Z,41.53
2019-04-05T22:39:51.079Z,40.77
2019-04-05T22:42:20.221Z,39.43
2019-04-05T22:44:49.619Z,40.47
2019-04-05T22:47:18.769Z,42.27
2019-04-05T22:49:48.163Z,38.77
2019-04-05T22:52:17.711Z,41.00
2019-04-05T22:54:47.008Z,39.83
2019-04-05T22:57:16.408Z,38.63
2019-04-05T22:59:45.833Z,37.13
2019-04-05T23:02:15.032Z,38.93
2019-04-05T23:04:44.421Z,39.70
2019-04-05T23:07:13.861Z,40.20
2019-04-05T23:09:43.017Z,37.53
2019-04-05T23:12:12.494Z,36.87
2019-04-05T23:14:42.124Z,34.97
2019-04-05T23:17:11.338Z,36.97
2019-04-05T23:19:43.887Z,37.83
2019-04-05T23:22:13.280Z,37.77
2019-04-05T23:24:42.488Z,36.93
2019-04-05T23:27:11.629Z,38.23
2019-04-05T23:29:41.026Z,37.23
2019-04-05T23:32:10.417Z,36.97
2019-04-05T23:34:39.668Z,37.70
2019-04-05T23:37:09.080Z,38.87
2019-04-05T23:39:38.510Z,39.30
2019-04-05T23:42:07.674Z,38.43
2019-04-05T23:44:37.098Z,39.17
2019-04-05T23:47:06.284Z,37.80
2019-04-05T23:49:35.711Z,36.57
2019-04-05T23:52:04.945Z,37.90
2019-04-05T23:54:34.114Z,36.53
2019-04-05T23:57:03.498Z,37.73
2019-04-05T23:59:32.953Z,38.43
